createdAt,value
2023-05-07T00:01:07.671Z,76.60
2023-05-07T00:03:37.883Z,76.90
2023-05-07T00:06:08.221Z,77.01
2023-05-07T00:08:40.784Z,76.87
2023-05-07T00:11:10.710Z,77.05
2023-05-07T00:13:40.593Z,77.28
2023-05-07T00:16:10.501Z,77.22
2023-05-07T00:18:40.498Z,77.49
2023-05-07T00:21:10.453Z,77.95
2023-05-07T00:23:43.206Z,77.98
2023-05-07T00:26:13.084Z,77.79
2023-05-07T00:28:42.959Z,77.80
2023-05-07T00:31:14.130Z,78.00
2023-05-07T00:33:44.024Z,78.17
2023-05-07T00:36:13.848Z,78.33
2023-05-07T00:38:46.419Z,78.14
2023-05-07T00:41:16.324Z,78.26
2023-05-07T00:43:46.174Z,78.14
2023-05-07T00:46:17.503Z,77.93
2023-05-07T00:48:47.438Z,77.96
2023-05-07T00:51:17.849Z,78.06
2023-05-07T00:53:50.833Z,78.26
2023-05-07T00:56:21.453Z,78.42
2023-05-07T00:58:51.611Z,78.47
2023-05-07T01:01:21.597Z,78.62
2023-05-07T01:03:51.643Z,78.74
2023-05-07T01:06:22.604Z,78.49
2023-05-07T01:08:58.160Z,78.76
2023-05-07T01:11:28.201Z,78.93
2023-05-07T01:13:58.437Z,78.85
2023-05-07T01:16:28.730Z,78.89
2023-05-07T01:18:58.604Z,78.93
2023-05-07T01:21:31.720Z,78.65
2023-05-07T01:24:04.791Z,78.77
2023-05-07T01:26:35.165Z,78.82
2023-05-07T01:29:05.104Z,78.86
2023-05-07T01:31:36.769Z,78.40
2023-05-07T01:34:09.087Z,78.79
2023-05-07T01:36:41.742Z,78.59
2023-05-07T01:39:14.634Z,78.55
2023-05-07T01:41:44.632Z,78.52
2023-05-07T01:44:16.851Z,78.25
2023-05-07T01:46:47.057Z,78.27
2023-05-07T01:49:17.354Z,78.30
2023-05-07T01:51:47.711Z,78.44
2023-05-07T01:54:21.833Z,78.33
2023-05-07T01:56:52.037Z,78.42
2023-05-07T01:59:21.937Z,79.02
2023-05-07T02:01:51.897Z,78.96
2023-05-07T02:04:21.977Z,79.31
2023-05-07T02:07:04.056Z,79.45
2023-05-07T02:09:36.639Z,79.27
2023-05-07T02:12:07.302Z,79.41
2023-05-07T02:14:37.188Z,79.48
2023-05-07T02:17:07.188Z,79.70
2023-05-07T02:19:37.036Z,79.98
2023-05-07T02:22:06.912Z,79.65
2023-05-07T02:24:39.456Z,80.07
2023-05-07T02:27:09.355Z,80.02
2023-05-07T02:29:39.209Z,79.97
2023-05-07T02:32:09.128Z,79.63
2023-05-07T02:34:39.169Z,79.88
2023-05-07T02:37:09.133Z,79.85
2023-05-07T02:39:42.139Z,80.23
2023-05-07T02:42:12.040Z,80.60
2023-05-07T02:44:41.969Z,80.60
2023-05-07T02:47:14.264Z,80.62
2023-05-07T02:49:44.269Z,80.80
2023-05-07T02:52:14.257Z,80.84
2023-05-07T02:54:46.836Z,80.96
2023-05-07T02:57:16.687Z,80.76
2023-05-07T02:59:47.072Z,81.08
2023-05-07T03:02:17.002Z,81.22
2023-05-07T03:04:47.229Z,81.12
2023-05-07T03:07:17.135Z,81.14
2023-05-07T03:09:49.777Z,81.05
2023-05-07T03:12:20.328Z,81.50
2023-05-07T03:14:50.139Z,81.12
2023-05-07T03:17:20.230Z,81.66
2023-05-07T03:19:50.100Z,81.76
2023-05-07T03:22:19.970Z,81.81
2023-05-07T03:24:52.523Z,82.01
2023-05-07T03:27:22.385Z,82.25
2023-05-07T03:29:52.591Z,81.96
2023-05-07T03:32:22.644Z,82.21
2023-05-07T03:34:53.036Z,82.02
2023-05-07T03:37:23.084Z,82.32
2023-05-07T03:39:55.559Z,81.77
2023-05-07T03:42:25.444Z,81.49
2023-05-07T03:44:55.449Z,81.99
2023-05-07T03:47:27.555Z,81.69
2023-05-07T03:49:57.428Z,81.71
2023-05-07T03:52:27.321Z,82.02
2023-05-07T03:54:59.866Z,81.94
2023-05-07T03:57:29.695Z,81.97
2023-05-07T03:59:59.946Z,81.87
2023-05-07T04:02:29.990Z,82.33
2023-05-07T04:05:00.463Z,82.16
2023-05-07T04:07:30.448Z,82.23
2023-05-07T04:10:03.487Z,82.49
2023-05-07T04:12:33.464Z,82.36
2023-05-07T04:15:03.358Z,82.30
2023-05-07T04:17:33.432Z,82.47
2023-05-07T04:20:03.571Z,82.53
2023-05-07T04:22:33.400Z,82.53
2023-05-07T04:25:05.904Z,82.98
2023-05-07T04:27:35.923Z,83.06
2023-05-07T04:30:05.793Z,83.49
2023-05-07T04:32:35.852Z,83.33
2023-05-07T04:35:05.740Z,83.85
2023-05-07T04:37:36.339Z,83.92
2023-05-07T04:40:11.502Z,84.14
2023-05-07T04:42:41.693Z,83.79
2023-05-07T04:45:13.603Z,84.47
2023-05-07T04:47:43.548Z,84.79
2023-05-07T04:50:14.632Z,84.77
2023-05-07T04:52:44.494Z,84.86
2023-05-07T04:55:17.048Z,85.13
2023-05-07T04:57:47.067Z,84.56
2023-05-07T05:00:20.761Z,84.93
2023-05-07T05:02:50.805Z,84.97
2023-05-07T05:05:20.987Z,84.95
2023-05-07T05:07:50.806Z,85.33
2023-05-07T05:10:24.584Z,85.28
2023-05-07T05:12:54.861Z,85.00
2023-05-07T05:15:24.856Z,85.22
2023-05-07T05:17:54.797Z,85.00
2023-05-07T05:20:24.812Z,85.06
2023-05-07T05:22:54.840Z,85.02
2023-05-07T05:25:27.346Z,85.43
2023-05-07T05:27:57.771Z,85.97
2023-05-07T05:30:27.819Z,85.70
2023-05-07T05:32:57.756Z,85.57
2023-05-07T05:35:27.881Z,86.68
2023-05-07T05:37:57.855Z,85.97
2023-05-07T05:40:31.037Z,86.03
2023-05-07T05:43:01.171Z,86.29
2023-05-07T05:45:31.263Z,86.61
2023-05-07T05:48:01.513Z,86.09
2023-05-07T05:50:31.577Z,86.06
2023-05-07T05:53:01.609Z,86.57
2023-05-07T05:55:34.496Z,86.26
2023-05-07T05:58:04.908Z,86.44
2023-05-07T06:00:36.331Z,86.93
2023-05-07T06:03:06.383Z,86.49
2023-05-07T06:05:36.277Z,86.74
2023-05-07T06:08:06.629Z,86.90
2023-05-07T06:10:39.967Z,86.56
2023-05-07T06:13:09.930Z,86.65
2023-05-07T06:15:40.605Z,86.50
2023-05-07T06:18:10.681Z,86.00
2023-05-07T06:20:41.071Z,85.71
2023-05-07T06:23:11.090Z,85.70
2023-05-07T06:25:43.500Z,85.17
2023-05-07T06:28:13.515Z,85.04
2023-05-07T06:30:43.674Z,84.90
2023-05-07T06:33:15.494Z,85.21
2023-05-07T06:35:45.676Z,85.10
2023-05-07T06:38:15.660Z,85.18
2023-05-07T06:40:48.149Z,85.20
2023-05-07T06:43:18.022Z,85.21
2023-05-07T06:45:47.901Z,85.07
2023-05-07T06:48:17.762Z,84.74
2023-05-07T06:50:47.821Z,84.46
2023-05-07T06:53:17.757Z,83.86
2023-05-07T06:55:51.234Z,83.34
2023-05-07T06:58:21.052Z,83.42
2023-05-07T07:00:50.984Z,83.33
2023-05-07T07:03:21.002Z,83.16
2023-05-07T07:05:51.005Z,83.43
2023-05-07T07:08:22.429Z,82.96
2023-05-07T07:10:54.909Z,82.84
2023-05-07T07:13:25.007Z,82.94
2023-05-07T07:15:55.955Z,82.55
2023-05-07T07:18:26.129Z,82.52
2023-05-07T07:20:55.968Z,82.13
2023-05-07T07:23:26.268Z,81.98
2023-05-07T07:25:58.998Z,81.06
2023-05-07T07:28:28.976Z,80.58
2023-05-07T07:30:59.184Z,80.71
2023-05-07T07:33:29.114Z,80.78
2023-05-07T07:35:59.781Z,80.94
2023-05-07T07:38:29.916Z,79.96
2023-05-07T07:41:02.434Z,79.55
2023-05-07T07:43:32.352Z,79.30
2023-05-07T07:46:02.330Z,78.21
2023-05-07T07:48:32.234Z,77.43
2023-05-07T07:51:02.150Z,78.21
2023-05-07T07:53:32.122Z,78.06
2023-05-07T07:56:05.894Z,77.22
2023-05-07T07:58:36.857Z,76.67
2023-05-07T08:01:07.254Z,77.25
2023-05-07T08:03:37.370Z,76.72
2023-05-07T08:06:07.694Z,75.19
2023-05-07T08:08:37.618Z,75.08
2023-05-07T08:11:10.194Z,73.78
2023-05-07T08:13:40.863Z,72.85
2023-05-07T08:16:11.054Z,73.35
2023-05-07T08:18:40.987Z,72.68
2023-05-07T08:21:10.956Z,72.49
2023-05-07T08:23:40.801Z,72.01
2023-05-07T08:26:14.303Z,72.09
2023-05-07T08:28:44.358Z,70.59
2023-05-07T08:31:14.305Z,70.63
2023-05-07T08:33:44.288Z,71.38
2023-05-07T08:36:14.298Z,71.34
2023-05-07T08:38:46.874Z,71.99
2023-05-07T08:41:19.492Z,71.05
2023-05-07T08:43:52.240Z,69.90
2023-05-07T08:46:23.681Z,69.82
2023-05-07T08:48:54.218Z,70.28
2023-05-07T08:51:25.388Z,68.45
2023-05-07T08:53:55.270Z,68.88
2023-05-07T08:56:27.847Z,68.35
2023-05-07T08:58:59.946Z,67.46
2023-05-07T09:01:30.539Z,66.69
2023-05-07T09:04:01.442Z,65.54
2023-05-07T09:06:31.553Z,66.19
2023-05-07T09:09:02.460Z,64.63
2023-05-07T09:11:35.265Z,63.93
2023-05-07T09:14:05.929Z,63.81
2023-05-07T09:16:37.007Z,63.45
2023-05-07T09:19:07.017Z,63.30
2023-05-07T09:21:36.928Z,62.93
2023-05-07T09:24:07.109Z,63.19
2023-05-07T09:26:39.632Z,62.01
2023-05-07T09:29:09.980Z,61.73
2023-05-07T09:31:41.589Z,60.79
2023-05-07T09:34:11.464Z,60.78
2023-05-07T09:36:41.597Z,59.90
2023-05-07T09:39:11.889Z,60.34
2023-05-07T09:41:52.486Z,59.35
2023-05-07T09:44:22.698Z,58.21
2023-05-07T09:46:58.449Z,56.89
2023-05-07T09:49:29.038Z,57.46
2023-05-07T09:51:59.461Z,56.75
2023-05-07T09:54:30.711Z,56.84
2023-05-07T09:57:06.215Z,55.36
2023-05-07T09:59:38.529Z,55.56
2023-05-07T10:02:09.039Z,55.08
2023-05-07T10:04:41.692Z,55.80
2023-05-07T10:07:12.741Z,54.96
2023-05-07T10:09:45.317Z,55.06
2023-05-07T10:12:18.407Z,54.65
2023-05-07T10:14:50.159Z,54.35
2023-05-07T10:17:21.166Z,54.46
2023-05-07T10:19:51.348Z,55.05
2023-05-07T10:22:22.994Z,54.30
2023-05-07T10:24:56.309Z,53.53
2023-05-07T10:27:29.516Z,54.93
2023-05-07T10:30:10.202Z,53.91
2023-05-07T10:32:44.409Z,52.43
2023-05-07T10:35:20.419Z,52.31
2023-05-07T10:37:52.337Z,53.69
2023-05-07T10:40:23.996Z,53.16
2023-05-07T10:43:07.778Z,51.04
2023-05-07T10:45:40.217Z,51.27
2023-05-07T10:48:27.921Z,51.71
2023-05-07T10:51:23.431Z,51.58
2023-05-07T10:54:26.070Z,50.53
2023-05-07T10:56:56.441Z,50.96
2023-05-07T10:59:43.324Z,50.56
2023-05-07T11:02:15.534Z,50.47
2023-05-07T11:04:45.937Z,49.69
2023-05-07T11:07:29.881Z,49.71
2023-05-07T11:10:02.763Z,50.31
2023-05-07T11:12:54.558Z,49.67
2023-05-07T11:15:48.869Z,49.52
2023-05-07T11:18:20.805Z,50.59
2023-05-07T11:20:58.908Z,48.82
2023-05-07T11:24:10.466Z,49.02
2023-05-07T11:26:51.583Z,47.54
2023-05-07T11:29:23.937Z,49.49
2023-05-07T11:31:59.129Z,49.20
2023-05-07T11:34:30.497Z,49.74
2023-05-07T11:37:02.478Z,49.83
2023-05-07T11:39:34.599Z,49.81
2023-05-07T11:42:04.775Z,49.92
2023-05-07T11:44:49.445Z,49.06
2023-05-07T11:47:24.759Z,48.68
2023-05-07T11:49:56.193Z,47.84
2023-05-07T11:52:27.895Z,48.71
2023-05-07T11:54:58.836Z,48.74
2023-05-07T11:57:30.043Z,48.32
2023-05-07T12:00:00.825Z,48.37
2023-05-07T12:02:33.492Z,46.98
2023-05-07T12:05:05.914Z,48.12
2023-05-07T12:07:37.791Z,48.29
2023-05-07T12:10:09.729Z,46.97
2023-05-07T12:12:48.851Z,47.10
2023-05-07T12:15:20.339Z,47.13
2023-05-07T12:17:53.872Z,48.33
2023-05-07T12:20:24.089Z,47.17
2023-05-07T12:22:54.786Z,47.35
2023-05-07T12:25:24.942Z,48.19
2023-05-07T12:27:56.466Z,48.12
2023-05-07T12:30:26.442Z,48.22
2023-05-07T12:32:59.723Z,47.76
2023-05-07T12:35:33.108Z,48.17
2023-05-07T12:38:07.612Z,48.21
2023-05-07T12:40:41.712Z,47.40
2023-05-07T12:43:12.121Z,48.44
2023-05-07T12:45:42.819Z,48.12
2023-05-07T12:48:16.776Z,47.53
2023-05-07T12:50:46.973Z,47.63
2023-05-07T12:53:17.074Z,47.70
2023-05-07T12:55:48.258Z,48.38
2023-05-07T12:58:21.784Z,48.42
2023-05-07T13:00:53.077Z,49.17
2023-05-07T13:03:30.487Z,48.46
2023-05-07T13:06:03.734Z,49.03
2023-05-07T13:08:35.383Z,48.21
2023-05-07T13:11:07.216Z,48.98
2023-05-07T13:13:38.229Z,49.57
2023-05-07T13:16:10.158Z,49.37
2023-05-07T13:18:45.073Z,48.80
2023-05-07T13:21:15.614Z,50.05
2023-05-07T13:23:45.450Z,50.74
2023-05-07T13:26:26.211Z,49.53
2023-05-07T13:28:57.250Z,49.68
2023-05-07T13:31:28.633Z,50.99
2023-05-07T13:34:01.182Z,50.07
2023-05-07T13:36:34.164Z,50.07
2023-05-07T13:39:04.202Z,51.01
2023-05-07T13:41:34.091Z,52.56
2023-05-07T13:44:04.025Z,52.68
2023-05-07T13:46:34.090Z,53.94
2023-05-07T13:49:06.821Z,55.66
2023-05-07T13:51:36.665Z,56.49
2023-05-07T13:54:08.554Z,56.45
2023-05-07T13:56:38.417Z,57.27
2023-05-07T13:59:08.416Z,57.29
2023-05-07T14:01:38.412Z,57.66
2023-05-07T14:04:11.568Z,57.87
2023-05-07T14:06:41.518Z,58.03
2023-05-07T14:09:13.408Z,58.48
2023-05-07T14:11:43.641Z,59.21
2023-05-07T14:14:14.615Z,58.76
2023-05-07T14:16:50.726Z,58.68
2023-05-07T14:19:24.516Z,58.83
2023-05-07T14:21:54.443Z,57.92
2023-05-07T14:24:36.998Z,58.58
2023-05-07T14:27:08.327Z,58.64
2023-05-07T14:29:38.820Z,59.02
2023-05-07T14:32:09.184Z,59.00
2023-05-07T14:34:41.636Z,59.46
2023-05-07T14:37:11.613Z,59.48
2023-05-07T14:39:41.515Z,59.72
2023-05-07T14:42:12.672Z,59.57
2023-05-07T14:44:42.771Z,59.65
2023-05-07T14:47:12.816Z,59.89
2023-05-07T14:49:46.725Z,59.60
2023-05-07T14:52:16.656Z,59.48
2023-05-07T14:54:46.506Z,59.82
2023-05-07T14:57:19.790Z,59.91
2023-05-07T14:59:50.408Z,60.85
2023-05-07T15:02:21.288Z,60.85
2023-05-07T15:04:54.121Z,61.41
2023-05-07T15:07:24.127Z,61.69
2023-05-07T15:09:53.991Z,61.89
2023-05-07T15:12:23.920Z,63.33
2023-05-07T15:14:53.896Z,63.62
2023-05-07T15:17:23.849Z,64.65
2023-05-07T15:19:56.445Z,65.82
2023-05-07T15:22:26.432Z,66.52
2023-05-07T15:24:56.423Z,66.57
2023-05-07T15:27:26.400Z,66.57
2023-05-07T15:29:57.435Z,67.37
2023-05-07T15:32:27.331Z,67.58
2023-05-07T15:35:00.155Z,67.52
2023-05-07T15:37:32.633Z,67.91
2023-05-07T15:40:03.639Z,68.67
2023-05-07T15:42:33.919Z,68.95
2023-05-07T15:45:04.340Z,69.26
2023-05-07T15:47:37.358Z,69.56
2023-05-07T15:50:11.131Z,70.07
2023-05-07T15:52:42.113Z,70.43
2023-05-07T15:55:12.741Z,70.20
2023-05-07T15:57:42.780Z,70.92
2023-05-07T16:00:14.653Z,71.01
2023-05-07T16:02:46.887Z,71.74
2023-05-07T16:05:19.566Z,72.39
2023-05-07T16:07:49.632Z,72.77
2023-05-07T16:10:22.539Z,72.65
2023-05-07T16:12:52.587Z,72.99
2023-05-07T16:15:22.574Z,73.38
2023-05-07T16:17:58.129Z,73.37
2023-05-07T16:20:32.957Z,74.22
2023-05-07T16:23:02.956Z,74.46
2023-05-07T16:25:32.992Z,74.60
2023-05-07T16:28:02.832Z,74.99
2023-05-07T16:30:32.724Z,74.91
2023-05-07T16:33:03.100Z,75.76
2023-05-07T16:35:37.411Z,75.12
2023-05-07T16:38:10.560Z,75.83
2023-05-07T16:40:41.885Z,75.76
2023-05-07T16:43:11.788Z,75.73
2023-05-07T16:45:41.845Z,75.61
2023-05-07T16:48:12.361Z,75.30
2023-05-07T16:50:45.199Z,75.70
2023-05-07T16:53:17.579Z,74.76
2023-05-07T16:55:50.170Z,74.84
2023-05-07T16:58:20.060Z,75.50
2023-05-07T17:00:51.209Z,75.14
2023-05-07T17:03:21.758Z,75.14
2023-05-07T17:05:55.454Z,75.62
2023-05-07T17:08:25.430Z,75.70
2023-05-07T17:10:55.445Z,75.61
2023-05-07T17:13:25.605Z,75.80
2023-05-07T17:15:55.772Z,75.99
2023-05-07T17:18:25.768Z,75.57
2023-05-07T17:20:58.303Z,75.65
2023-05-07T17:23:28.128Z,76.03
2023-05-07T17:25:58.271Z,76.66
2023-05-07T17:28:28.192Z,76.94
2023-05-07T17:30:58.639Z,77.04
2023-05-07T17:33:28.654Z,77.42
2023-05-07T17:36:03.229Z,77.73
2023-05-07T17:38:33.186Z,77.42
2023-05-07T17:41:03.214Z,78.16
2023-05-07T17:43:33.131Z,77.63
2023-05-07T17:46:03.615Z,77.80
2023-05-07T17:48:33.720Z,78.14
2023-05-07T17:51:09.086Z,78.38
2023-05-07T17:53:39.137Z,78.52
2023-05-07T17:56:09.298Z,78.41
2023-05-07T17:58:57.418Z,78.15
2023-05-07T18:01:28.657Z,77.94
2023-05-07T18:03:58.897Z,78.84
2023-05-07T18:06:32.395Z,78.68
2023-05-07T18:09:02.499Z,78.61
2023-05-07T18:11:33.436Z,78.92
2023-05-07T18:14:03.901Z,78.16
2023-05-07T18:16:34.040Z,77.90
2023-05-07T18:19:04.060Z,77.38
2023-05-07T18:21:36.609Z,77.80
2023-05-07T18:24:06.708Z,77.82
2023-05-07T18:26:36.968Z,77.55
2023-05-07T18:29:06.984Z,77.57
2023-05-07T18:31:38.050Z,77.55
2023-05-07T18:34:08.199Z,77.69
2023-05-07T18:36:40.690Z,77.45
2023-05-07T18:39:11.306Z,77.36
2023-05-07T18:41:45.495Z,77.18
2023-05-07T18:44:16.707Z,77.12
2023-05-07T18:46:48.108Z,77.55
2023-05-07T18:49:18.172Z,77.50
2023-05-07T18:51:50.788Z,77.50
2023-05-07T18:54:20.697Z,77.74
2023-05-07T18:56:50.795Z,77.35
2023-05-07T18:59:20.964Z,77.42
2023-05-07T19:01:51.205Z,77.70
2023-05-07T19:04:21.214Z,77.79
2023-05-07T19:06:53.847Z,78.46
2023-05-07T19:09:24.375Z,78.58
2023-05-07T19:11:54.340Z,78.64
2023-05-07T19:14:24.394Z,78.86
2023-05-07T19:16:54.425Z,79.34
2023-05-07T19:19:27.219Z,79.29
2023-05-07T19:21:59.951Z,79.47
2023-05-07T19:24:29.863Z,79.77
2023-05-07T19:26:59.872Z,80.49
2023-05-07T19:29:29.758Z,80.52
2023-05-07T19:31:59.905Z,80.77
2023-05-07T19:34:30.522Z,80.39
2023-05-07T19:37:03.069Z,80.03
2023-05-07T19:39:33.020Z,80.74
2023-05-07T19:42:03.156Z,80.41
2023-05-07T19:44:33.123Z,80.44
2023-05-07T19:47:04.307Z,80.20
2023-05-07T19:49:37.324Z,80.43
2023-05-07T19:52:09.977Z,80.37
2023-05-07T19:54:39.929Z,80.10
2023-05-07T19:57:09.933Z,80.52
2023-05-07T19:59:40.530Z,81.05
2023-05-07T20:02:10.597Z,81.08
2023-05-07T20:04:40.484Z,80.79
2023-05-07T20:07:13.162Z,80.46
2023-05-07T20:09:44.448Z,80.66
2023-05-07T20:12:14.334Z,80.61
2023-05-07T20:14:44.383Z,80.81
2023-05-07T20:17:14.479Z,80.77
2023-05-07T20:19:44.382Z,80.89
2023-05-07T20:22:17.094Z,81.19
2023-05-07T20:24:47.035Z,80.98
2023-05-07T20:27:19.713Z,81.05
2023-05-07T20:29:49.867Z,81.56
2023-05-07T20:32:20.748Z,81.10
2023-05-07T20:34:50.590Z,81.33
2023-05-07T20:37:23.143Z,81.25
2023-05-07T20:39:52.998Z,81.72
2023-05-07T20:42:22.884Z,81.62
2023-05-07T20:44:52.831Z,81.81
2023-05-07T20:47:22.948Z,81.43
2023-05-07T20:49:53.818Z,81.21
2023-05-07T20:52:26.448Z,81.31
2023-05-07T20:54:56.272Z,81.16
2023-05-07T20:57:28.522Z,81.39
2023-05-07T21:00:01.170Z,81.41
2023-05-07T21:02:31.143Z,81.92
2023-05-07T21:05:01.069Z,81.59
2023-05-07T21:07:33.615Z,81.73
2023-05-07T21:10:03.751Z,81.93
2023-05-07T21:12:33.634Z,82.08
2023-05-07T21:15:03.765Z,82.18
2023-05-07T21:17:35.578Z,82.22
2023-05-07T21:20:06.084Z,82.21
2023-05-07T21:22:38.603Z,82.25
2023-05-07T21:25:10.462Z,82.52
2023-05-07T21:27:41.462Z,82.53
2023-05-07T21:30:13.442Z,82.43
2023-05-07T21:32:44.752Z,82.77
2023-05-07T21:35:14.820Z,82.75
2023-05-07T21:37:47.368Z,82.37
2023-05-07T21:40:17.914Z,82.38
2023-05-07T21:42:47.790Z,82.93
2023-05-07T21:45:17.645Z,83.22
2023-05-07T21:47:47.839Z,83.16
2023-05-07T21:50:17.740Z,83.30
2023-05-07T21:52:50.440Z,83.14
2023-05-07T21:55:21.174Z,83.61
2023-05-07T21:58:04.019Z,83.69
2023-05-07T22:00:35.498Z,83.66
2023-05-07T22:03:05.775Z,83.96
2023-05-07T22:05:35.626Z,83.88
2023-05-07T22:08:08.413Z,84.33
2023-05-07T22:10:39.063Z,84.21
2023-05-07T22:13:09.168Z,84.34
2023-05-07T22:15:53.234Z,83.71
2023-05-07T22:18:26.973Z,83.87
2023-05-07T22:20:56.811Z,84.09
2023-05-07T22:23:29.282Z,83.79
2023-05-07T22:25:59.147Z,84.01
2023-05-07T22:28:29.105Z,83.74
2023-05-07T22:30:59.054Z,83.60
2023-05-07T22:33:28.951Z,83.44
2023-05-07T22:35:58.840Z,83.68
2023-05-07T22:38:31.566Z,83.69
2023-05-07T22:41:02.473Z,83.54
2023-05-07T22:43:32.365Z,84.24
2023-05-07T22:46:03.363Z,84.27
2023-05-07T22:48:33.426Z,84.16
2023-05-07T22:51:03.993Z,84.40
2023-05-07T22:53:36.525Z,84.42
2023-05-07T22:56:09.058Z,84.46
2023-05-07T22:58:39.256Z,84.19
2023-05-07T23:01:15.473Z,83.87
2023-05-07T23:03:45.498Z,84.43
2023-05-07T23:06:15.725Z,84.73
2023-05-07T23:08:48.347Z,84.73
2023-05-07T23:11:18.431Z,84.59
2023-05-07T23:13:48.284Z,84.53
2023-05-07T23:16:18.189Z,85.04
2023-05-07T23:18:48.569Z,85.17
2023-05-07T23:21:18.423Z,84.75
2023-05-07T23:23:51.292Z,84.84
2023-05-07T23:26:21.544Z,84.80
2023-05-07T23:28:51.431Z,84.99
2023-05-07T23:31:21.287Z,84.65
2023-05-07T23:33:53.922Z,84.66
2023-05-07T23:36:24.089Z,85.12
2023-05-07T23:38:56.635Z,84.95
2023-05-07T23:41:26.780Z,84.99
2023-05-07T23:43:56.889Z,85.04
2023-05-07T23:46:27.282Z,85.11
2023-05-07T23:48:57.130Z,84.76
2023-05-07T23:51:28.214Z,85.27
2023-05-07T23:54:00.918Z,85.07
2023-05-07T23:56:30.805Z,85.15
2023-05-07T23:59:00.715Z,85.33
